Time;durP1;ratioP1;P1;durP2;ratioP2;P2;SDS_P1;SDS_P2;PMS_P1;PMS_P2;Temp;Humidity;BMP_temperature;BMP_pressure;BME280_temperature;BME280_humidity;BME280_pressure;Samples;Min_cycle;Max_cycle;Signal;HPM_P1;HPM_P2
2023/08/06 00:00:18;;;;;;;8.20;6.43;;;;;;;;;;4915314;29;20048;-70
2023/08/06 00:02:44;;;;;;;7.95;6.55;;;17.70;99.90;;;;;;4899244;29;20043;-70
2023/08/06 00:05:10;;;;;;;11.65;7.65;;;;;;;;;;4899449;29;20044;-70
2023/08/06 00:07:35;;;;;;;8.77;7.60;;;17.70;99.90;;;;;;4899532;29;20107;-71
2023/08/06 00:10:01;;;;;;;10.27;7.20;;;;;;;;;;4915220;29;20404;-71
2023/08/06 00:12:27;;;;;;;12.32;8.38;;;18.00;99.90;;;;;;4898907;29;20098;-71
2023/08/06 00:14:53;;;;;;;12.88;8.38;;;;;;;;;;4899427;29;20593;-71
2023/08/06 00:17:19;;;;;;;11.95;7.90;;;;;;;;;;4899494;29;20043;-70
2023/08/06 00:19:45;;;;;;;12.77;8.68;;;17.60;99.90;;;;;;4899222;29;20186;-70
2023/08/06 00:22:10;;;;;;;14.75;8.30;;;17.70;99.90;;;;;;4914712;29;20139;-70
2023/08/06 00:24:36;;;;;;;13.13;9.45;;;17.80;99.90;;;;;;4915029;29;20036;-70
2023/08/06 00:27:02;;;;;;;10.98;8.48;;;17.50;99.90;;;;;;4914985;29;20572;-70
2023/08/06 00:29:28;;;;;;;11.38;9.45;;;17.80;99.90;;;;;;4899132;29;20051;-70
2023/08/06 00:31:54;;;;;;;10.80;8.23;;;16.80;99.90;;;;;;4898728;29;20048;-71
2023/08/06 00:34:20;;;;;;;13.25;10.02;;;;;;;;;;4914382;29;20043;-70
2023/08/06 00:36:46;;;;;;;11.50;8.75;;;;;;;;;;4899100;29;20048;-71
2023/08/06 00:39:12;;;;;;;15.98;8.98;;;;;;;;;;4898998;29;20397;-71
2023/08/06 00:41:38;;;;;;;11.80;9.65;;;;;;;;;;4898772;29;20538;-70
2023/08/06 00:44:04;;;;;;;13.63;10.15;;;18.10;99.90;;;;;;4896737;29;20048;-70
2023/08/06 00:46:31;;;;;;;12.50;9.95;;;17.70;99.90;;;;;;4915114;29;20051;-71
2023/08/06 00:48:57;;;;;;;16.52;11.52;;;17.90;99.90;;;;;;4883614;29;20126;-70
2023/08/06 00:51:23;;;;;;;12.88;10.35;;;18.10;99.90;;;;;;4883128;29;20568;-71
2023/08/06 00:53:50;;;;;;;12.40;9.88;;;18.10;99.90;;;;;;4898942;29;20048;-70
2023/08/06 00:56:16;;;;;;;14.60;10.43;;;18.10;99.90;;;;;;4883204;29;20044;-71
2023/08/06 00:58:42;;;;;;;12.82;10.35;;;17.70;99.90;;;;;;4898886;29;20052;-70
2023/08/06 01:01:07;;;;;;;15.60;11.60;;;17.80;99.90;;;;;;4898801;29;20114;-70
2023/08/06 01:03:33;;;;;;;15.98;11.88;;;17.70;99.90;;;;;;4914681;29;20084;-70
2023/08/06 01:06:00;;;;;;;14.50;11.20;;;17.70;99.90;;;;;;4898619;29;20044;-70
2023/08/06 01:08:47;;;;;;;18.73;12.85;;;18.00;99.90;;;;;;4898704;29;20039;-70
2023/08/06 01:11:33;;;;;;;18.42;14.13;;;17.90;99.90;;;;;;4882837;29;20047;-70
2023/08/06 01:14:08;;;;;;;18.23;14.15;;;17.90;99.90;;;;;;4898262;29;20119;-70
2023/08/06 01:16:35;;;;;;;19.05;14.23;;;17.70;99.90;;;;;;4898093;29;20096;-70
2023/08/06 01:19:00;;;;;;;18.55;14.13;;;18.00;99.90;;;;;;4898342;29;20040;-70
2023/08/06 01:21:26;;;;;;;18.27;14.10;;;;;;;;;;4897408;29;20115;-70
2023/08/06 01:23:52;;;;;;;18.05;13.25;;;18.20;99.90;;;;;;4898343;29;20083;-71
2023/08/06 01:26:18;;;;;;;19.95;15.40;;;;;;;;;;4898857;29;20096;-71
2023/08/06 01:29:14;;;;;;;18.27;13.35;;;18.00;99.90;;;;;;4898632;29;20087;-71
2023/08/06 01:31:43;;;;;;;19.02;13.20;;;17.60;99.90;;;;;;4895983;29;20051;-70
2023/08/06 01:34:20;;;;;;;18.80;14.10;;;17.80;99.90;;;;;;4898494;29;20095;-71
2023/08/06 01:36:46;;;;;;;17.80;14.30;;;18.00;99.90;;;;;;4898411;29;20050;-71
2023/08/06 01:39:12;;;;;;;19.15;13.57;;;17.60;99.90;;;;;;4882818;29;20122;-72
2023/08/06 01:41:37;;;;;;;22.15;16.10;;;18.00;99.90;;;;;;4898087;29;20048;-69
2023/08/06 01:44:03;;;;;;;17.95;14.25;;;18.00;99.90;;;;;;4898310;29;20040;-69
2023/08/06 01:46:29;;;;;;;18.25;14.35;;;;;;;;;;4898286;29;20439;-70
2023/08/06 01:48:55;;;;;;;14.65;11.88;;;;;;;;;;4898294;29;20183;-71
2023/08/06 01:51:21;;;;;;;17.55;14.00;;;17.90;99.90;;;;;;4898270;29;20246;-70
2023/08/06 01:53:46;;;;;;;18.20;14.15;;;17.80;99.90;;;;;;4898276;29;20032;-70
2023/08/06 01:56:12;;;;;;;17.20;13.57;;;18.00;99.90;;;;;;4900911;29;20044;-70
2023/08/06 01:58:38;;;;;;;17.23;12.15;;;;;;;;;;4902201;29;20043;-70
2023/08/06 02:01:04;;;;;;;12.27;10.98;;;;;;;;;;4901920;29;20472;-70
2023/08/06 02:03:29;;;;;;;17.60;13.00;;;18.00;99.90;;;;;;4901677;29;20052;-70
2023/08/06 02:05:55;;;;;;;18.02;13.65;;;17.70;99.90;;;;;;4902126;29;20040;-70
2023/08/06 02:08:21;;;;;;;21.25;12.57;;;18.20;99.90;;;;;;4901651;29;20071;-70
2023/08/06 02:10:46;;;;;;;17.60;12.98;;;17.80;99.90;;;;;;4886618;29;20132;-70
2023/08/06 02:13:12;;;;;;;14.95;11.73;;;17.50;99.90;;;;;;4902025;29;20032;-70
2023/08/06 02:15:47;;;;;;;14.90;11.75;;;17.70;99.90;;;;;;4902103;29;20662;-70
2023/08/06 02:18:13;;;;;;;16.63;13.35;;;;;;;;;;4902173;29;20107;-70
2023/08/06 02:20:39;;;;;;;16.63;12.18;;;;;;;;;;4901632;29;20044;-70
2023/08/06 02:23:05;;;;;;;15.07;11.95;;;;;;;;;;4917884;29;20516;-70
2023/08/06 02:25:31;;;;;;;20.55;12.20;;;;;;;;;;4901604;29;20099;-71
2023/08/06 02:27:57;;;;;;;16.60;12.30;;;;;;;;;;4885819;29;20075;-70
2023/08/06 02:30:23;;;;;;;16.02;11.70;;;;;;;;;;4901306;29;20079;-70
2023/08/06 02:32:48;;;;;;;16.17;11.57;;;17.50;99.90;;;;;;4901201;29;20048;-69
2023/08/06 02:35:14;;;;;;;14.57;11.73;;;17.50;99.90;;;;;;4901617;29;20044;-70
2023/08/06 02:37:40;;;;;;;14.68;11.32;;;17.70;99.90;;;;;;4901491;29;20044;-70
2023/08/06 02:40:06;;;;;;;17.90;11.82;;;17.90;99.90;;;;;;4901272;29;20082;-70
2023/08/06 02:42:31;;;;;;;13.45;10.35;;;17.90;99.90;;;;;;4918080;29;20040;-70
2023/08/06 02:44:57;;;;;;;12.75;10.43;;;17.60;99.90;;;;;;4901075;29;20504;-70
2023/08/06 02:47:23;;;;;;;15.90;11.15;;;18.00;99.90;;;;;;4901241;29;20044;-70
2023/08/06 02:49:49;;;;;;;13.27;10.63;;;17.80;99.90;;;;;;4901308;29;20140;-70
2023/08/06 02:52:14;;;;;;;13.63;11.20;;;17.70;99.90;;;;;;4900767;29;20044;-70
2023/08/06 02:54:40;;;;;;;11.27;9.27;;;17.40;99.90;;;;;;4900992;29;20492;-70
2023/08/06 02:57:06;;;;;;;12.48;10.40;;;17.60;99.90;;;;;;4916624;29;20051;-70
2023/08/06 02:59:32;;;;;;;13.05;9.93;;;17.40;99.90;;;;;;4900798;29;20048;-70
2023/08/06 03:01:57;;;;;;;12.25;9.60;;;17.90;99.90;;;;;;4900623;29;20171;-70
2023/08/06 03:04:24;;;;;;;14.10;11.35;;;17.50;99.90;;;;;;4917862;29;20114;-70
2023/08/06 03:06:50;;;;;;;16.00;10.60;;;17.80;99.90;;;;;;4900281;29;20126;-70
2023/08/06 03:09:16;;;;;;;14.13;10.27;;;17.70;99.90;;;;;;4900727;29;20055;-70
2023/08/06 03:11:42;;;;;;;13.73;10.30;;;17.90;99.90;;;;;;4900556;29;20054;-70
2023/08/06 03:14:08;;;;;;;14.27;10.55;;;17.60;99.90;;;;;;4900371;29;20111;-70
2023/08/06 03:16:33;;;;;;;13.50;10.02;;;17.90;99.90;;;;;;4885074;29;20048;-70
2023/08/06 03:18:59;;;;;;;14.35;10.80;;;;;;;;;;4917720;29;20047;-70
2023/08/06 03:21:25;;;;;;;15.32;10.35;;;17.50;99.90;;;;;;4900316;29;20694;-70
2023/08/06 03:23:51;;;;;;;13.70;11.38;;;;;;;;;;4900510;29;20048;-70
2023/08/06 03:26:16;;;;;;;16.35;11.50;;;17.80;99.90;;;;;;4917209;29;20079;-70
2023/08/06 03:28:42;;;;;;;16.40;11.23;;;17.50;99.90;;;;;;4900203;29;20036;-70
2023/08/06 03:31:08;;;;;;;13.00;10.02;;;;;;;;;;4900360;29;20174;-71
2023/08/06 03:33:34;;;;;;;15.00;9.98;;;;;;;;;;4917197;29;20040;-71
2023/08/06 03:36:00;;;;;;;16.63;12.20;;;;;;;;;;4900335;29;20492;-71
2023/08/06 03:38:27;;;;;;;17.27;11.43;;;;;;;;;;4900072;29;20504;-70
2023/08/06 03:40:53;;;;;;;15.10;12.20;;;17.70;99.90;;;;;;4900221;29;20451;-70
2023/08/06 03:43:18;;;;;;;17.98;11.95;;;17.90;99.90;;;;;;4899718;29;20176;-70
2023/08/06 03:45:44;;;;;;;17.42;12.20;;;;;;;;;;4884595;29;20094;-71
2023/08/06 03:48:11;;;;;;;15.75;11.85;;;;;;;;;;4916995;29;20048;-72
2023/08/06 03:50:38;;;;;;;19.85;12.98;;;;;;;;;;4900205;29;20139;-71
2023/08/06 03:53:03;;;;;;;21.00;11.88;;;17.80;99.90;;;;;;4898698;29;20052;-70
2023/08/06 03:55:29;;;;;;;15.32;12.50;;;17.30;99.90;;;;;;4916093;29;20414;-70
2023/08/06 03:57:54;;;;;;;17.48;12.45;;;17.90;99.90;;;;;;4899420;29;20040;-70
2023/08/06 04:00:20;;;;;;;19.58;13.63;;;17.80;99.90;;;;;;4899478;29;20052;-70
2023/08/06 04:02:46;;;;;;;16.30;12.60;;;17.90;99.90;;;;;;4899444;29;20047;-71
2023/08/06 04:05:12;;;;;;;17.45;11.80;;;17.40;99.90;;;;;;4899960;29;20044;-71
2023/08/06 04:07:38;;;;;;;20.77;13.65;;;17.80;99.90;;;;;;4899674;29;20044;-70
2023/08/06 04:10:04;;;;;;;21.58;12.85;;;17.50;99.90;;;;;;4916557;29;20058;-70
2023/08/06 04:12:31;;;;;;;16.77;13.25;;;17.50;99.90;;;;;;4899442;29;20044;-70
2023/08/06 04:15:00;;;;;;;18.08;13.18;;;17.70;99.90;;;;;;4899408;29;20036;-69
2023/08/06 04:17:26;;;;;;;17.42;13.80;;;18.00;99.90;;;;;;4899750;29;20484;-71
2023/08/06 04:19:53;;;;;;;13.30;11.35;;;17.60;99.90;;;;;;4898827;29;20087;-71
2023/08/06 04:22:19;;;;;;;20.00;13.95;;;17.90;99.90;;;;;;4898973;29;20044;-70
2023/08/06 04:24:45;;;;;;;16.30;13.27;;;17.70;99.90;;;;;;4899496;29;20047;-70
2023/08/06 04:27:11;;;;;;;17.88;13.45;;;18.00;99.90;;;;;;4916033;29;20393;-71
2023/08/06 04:29:37;;;;;;;19.73;14.38;;;17.70;99.90;;;;;;4899589;29;20044;-70
2023/08/06 04:32:06;;;;;;;18.95;13.25;;;17.80;99.90;;;;;;4916011;29;20036;-70
2023/08/06 04:34:31;;;;;;;16.92;12.82;;;17.60;99.90;;;;;;4898581;29;20036;-70
2023/08/06 04:36:57;;;;;;;18.35;14.07;;;17.40;99.90;;;;;;4898817;29;20071;-70
2023/08/06 04:39:23;;;;;;;15.93;12.38;;;;;;;;;;4883414;29;20063;-71
2023/08/06 04:41:49;;;;;;;19.38;12.95;;;;;;;;;;4898522;29;20062;-71
2023/08/06 04:44:15;;;;;;;16.65;13.02;;;;;;;;;;4898312;29;21641;-71
2023/08/06 04:46:41;;;;;;;16.63;12.43;;;17.90;99.90;;;;;;4895863;29;20117;-70
2023/08/06 04:49:06;;;;;;;17.38;12.38;;;17.70;99.90;;;;;;4898560;29;20042;-70
2023/08/06 04:51:32;;;;;;;22.80;14.80;;;17.50;99.90;;;;;;4898161;29;20055;-70
2023/08/06 04:53:57;;;;;;;16.05;12.27;;;17.70;99.90;;;;;;4898702;29;20044;-70
2023/08/06 04:56:24;;;;;;;19.58;13.30;;;;;;;;;;4897763;29;20044;-69
2023/08/06 04:58:50;;;;;;;16.90;13.63;;;18.30;99.90;;;;;;4898110;29;20048;-71
2023/08/06 05:01:16;;;;;;;16.58;13.13;;;;;;;;;;4882597;29;20040;-71
2023/08/06 05:03:42;;;;;;;18.08;13.40;;;;;;;;;;4898264;29;20503;-71
2023/08/06 05:06:08;;;;;;;15.20;12.32;;;;;;;;;;4914113;29;20112;-70
2023/08/06 05:08:34;;;;;;;15.82;11.80;;;17.60;99.90;;;;;;4897002;29;20551;-70
2023/08/06 05:10:59;;;;;;;17.92;12.23;;;18.10;99.90;;;;;;4898282;29;20040;-70
2023/08/06 05:13:25;;;;;;;16.50;12.98;;;17.70;99.90;;;;;;4897461;29;20094;-71
2023/08/06 05:15:53;;;;;;;15.50;11.95;;;17.70;99.90;;;;;;4898209;29;20028;-71
2023/08/06 05:18:19;;;;;;;15.00;11.93;;;17.70;99.90;;;;;;4898334;29;20048;-70
2023/08/06 05:20:45;;;;;;;17.40;13.95;;;18.30;99.90;;;;;;4898293;29;20051;-70
2023/08/06 05:23:10;;;;;;;17.60;13.45;;;17.80;99.90;;;;;;4898129;29;20086;-70
2023/08/06 05:25:37;;;;;;;17.90;13.10;;;17.80;99.90;;;;;;4898001;29;20115;-70
2023/08/06 05:28:03;;;;;;;17.48;13.57;;;17.80;99.90;;;;;;4897837;29;20564;-70
2023/08/06 05:30:29;;;;;;;21.15;13.13;;;;;;;;;;4901151;29;20112;-71
2023/08/06 05:32:55;;;;;;;15.45;12.65;;;;;;;;;;4903921;29;20087;-71
2023/08/06 05:35:22;;;;;;;18.75;13.65;;;17.80;99.90;;;;;;4904286;29;20169;-71
2023/08/06 05:37:48;;;;;;;25.02;14.50;;;17.70;99.90;;;;;;4904273;29;20071;-71
2023/08/06 05:40:14;;;;;;;17.92;13.07;;;;;;;;;;4921104;29;20068;-71
2023/08/06 05:42:40;;;;;;;16.95;13.13;;;18.10;99.90;;;;;;4921038;29;20044;-71
2023/08/06 05:45:07;;;;;;;19.30;13.70;;;18.00;99.90;;;;;;4904134;29;20099;-70
2023/08/06 05:47:32;;;;;;;16.65;13.40;;;18.10;99.90;;;;;;4921172;29;20078;-70
2023/08/06 05:49:58;;;;;;;15.60;12.95;;;;;;;;;;4921052;29;20071;-70
2023/08/06 05:52:24;;;;;;;16.83;12.95;;;;;;;;;;4901191;29;20098;-71
2023/08/06 05:54:50;;;;;;;20.25;13.43;;;;;;;;;;4904364;29;20071;-71
2023/08/06 05:57:16;;;;;;;19.65;14.05;;;18.10;99.90;;;;;;4904559;29;20135;-71
2023/08/06 05:59:42;;;;;;;18.92;14.18;;;;;;;;;;4904719;29;20408;-71
2023/08/06 06:02:08;;;;;;;16.85;13.10;;;;;;;;;;4903987;29;20055;-71
2023/08/06 06:04:35;;;;;;;21.92;13.98;;;;;;;;;;4903469;29;20123;-70
2023/08/06 06:07:00;;;;;;;19.42;13.80;;;18.30;99.90;;;;;;4917135;29;20664;-70
2023/08/06 06:09:26;;;;;;;20.40;13.57;;;18.60;99.90;;;;;;4881156;29;20044;-71
2023/08/06 06:11:52;;;;;;;19.27;14.50;;;18.20;99.90;;;;;;4900114;29;20071;-71
2023/08/06 06:14:18;;;;;;;19.27;14.48;;;18.70;99.90;;;;;;4914096;29;20127;-71
2023/08/06 06:16:44;;;;;;;16.35;13.82;;;;;;;;;;4900075;29;20032;-71
2023/08/06 06:19:10;;;;;;;17.85;13.32;;;18.00;99.90;;;;;;4882139;29;20059;-71
2023/08/06 06:21:37;;;;;;;21.27;13.93;;;18.30;99.90;;;;;;4890637;29;20040;-71
2023/08/06 06:24:03;;;;;;;19.70;14.35;;;18.70;99.90;;;;;;4897841;29;20047;-71
2023/08/06 06:26:29;;;;;;;23.25;15.45;;;18.70;99.90;;;;;;4890804;29;20052;-71
2023/08/06 06:28:55;;;;;;;21.38;14.90;;;18.80;99.90;;;;;;4889507;29;20092;-71
2023/08/06 06:31:21;;;;;;;20.45;14.77;;;;;;;;;;4910419;29;20107;-70
2023/08/06 06:33:47;;;;;;;17.02;12.88;;;18.80;99.90;;;;;;4911655;29;20071;-71
2023/08/06 06:36:13;;;;;;;17.80;13.80;;;;;;;;;;4899968;29;20452;-71
2023/08/06 06:38:38;;;;;;;18.92;14.15;;;19.00;99.90;;;;;;4896817;29;20032;-71
2023/08/06 06:41:05;;;;;;;21.08;14.00;;;;;;;;;;4896626;29;20052;-72
2023/08/06 06:43:31;;;;;;;16.45;13.10;;;;;;;;;;4895911;29;20119;-71
2023/08/06 06:46:00;;;;;;;18.95;14.20;;;19.50;99.90;;;;;;4907037;29;20044;-72
2023/08/06 06:48:28;;;;;;;19.67;14.73;;;19.20;99.90;;;;;;4880587;29;20467;-71
2023/08/06 06:50:54;;;;;;;16.60;13.65;;;;;;;;;;4891678;29;20052;-71
2023/08/06 06:53:21;;;;;;;14.35;11.95;;;;;;;;;;4895383;29;20629;-71
2023/08/06 06:55:49;;;;;;;13.88;11.00;;;;;;;;;;4891674;29;20071;-70
2023/08/06 06:58:16;;;;;;;15.55;11.45;;;19.20;99.90;;;;;;4899011;29;20464;-70
2023/08/06 07:00:41;;;;;;;12.07;10.32;;;19.50;99.90;;;;;;4900539;29;20127;-71
2023/08/06 07:03:07;;;;;;;14.02;10.90;;;;;;;;;;4917421;29;20119;-72
2023/08/06 07:05:33;;;;;;;11.88;10.60;;;19.80;99.90;;;;;;4900809;29;20106;-71
2023/08/06 07:07:59;;;;;;;12.68;10.55;;;19.60;99.90;;;;;;4901011;29;20670;-71
2023/08/06 07:10:25;;;;;;;14.63;10.93;;;19.50;99.90;;;;;;4900751;29;20087;-71
2023/08/06 07:12:51;;;;;;;11.88;10.20;;;19.70;99.90;;;;;;4900255;29;20044;-70
2023/08/06 07:15:17;;;;;;;12.38;10.15;;;20.00;99.90;;;;;;4901031;29;20575;-70
2023/08/06 07:17:43;;;;;;;11.68;9.15;;;20.10;99.90;;;;;;4900674;29;20047;-70
2023/08/06 07:20:09;;;;;;;12.88;9.90;;;19.90;99.90;;;;;;4900561;29;20044;-70
2023/08/06 07:22:35;;;;;;;12.98;9.43;;;19.70;99.90;;;;;;4900150;29;20051;-70
2023/08/06 07:25:01;;;;;;;11.48;8.70;;;19.80;99.90;;;;;;4900358;29;20567;-70
2023/08/06 07:27:27;;;;;;;10.70;8.68;;;20.00;99.90;;;;;;4917260;29;20172;-70
2023/08/06 07:29:52;;;;;;;12.63;9.77;;;20.10;99.90;;;;;;4900303;29;20123;-71
2023/08/06 07:32:18;;;;;;;13.27;9.48;;;;;;;;;;4900205;29;20694;-70
2023/08/06 07:34:44;;;;;;;10.45;8.98;;;20.30;99.90;;;;;;4884787;29;20407;-71
2023/08/06 07:37:10;;;;;;;10.50;8.85;;;;;;;;;;4916007;29;20135;-69
2023/08/06 07:39:37;;;;;;;13.73;9.55;;;20.40;99.90;;;;;;4900211;29;20048;-69
2023/08/06 07:42:05;;;;;;;10.38;8.88;;;19.80;99.90;;;;;;4915641;29;20047;-69
2023/08/06 07:44:31;;;;;;;10.60;8.50;;;19.80;99.90;;;;;;4900241;29;20074;-68
2023/08/06 07:46:57;;;;;;;11.60;9.00;;;20.30;99.90;;;;;;4884648;29;20605;-68
2023/08/06 07:49:23;;;;;;;9.68;7.85;;;20.40;99.90;;;;;;4884622;29;20131;-69
2023/08/06 07:51:49;;;;;;;10.43;8.20;;;20.30;99.90;;;;;;4900001;29;20044;-68
2023/08/06 07:54:15;;;;;;;12.88;8.45;;;20.00;99.90;;;;;;4899581;29;20103;-69
2023/08/06 07:56:40;;;;;;;9.50;7.95;;;20.30;99.90;;;;;;4899930;29;20473;-69
2023/08/06 07:59:06;;;;;;;12.95;8.30;;;;;;;;;;4899929;29;20464;-70
2023/08/06 08:01:32;;;;;;;9.00;7.60;;;;;;;;;;4900092;29;20047;-70
2023/08/06 08:03:58;;;;;;;8.52;7.57;;;20.20;99.90;;;;;;4899657;29;20062;-69
2023/08/06 08:06:23;;;;;;;8.30;6.90;;;20.80;99.90;;;;;;4899772;29;20147;-69
2023/08/06 08:08:49;;;;;;;8.80;7.90;;;21.00;99.90;;;;;;4884516;29;20043;-70
2023/08/06 08:11:15;;;;;;;9.48;7.22;;;21.00;99.90;;;;;;4899371;29;20131;-70
2023/08/06 08:13:41;;;;;;;7.07;6.38;;;21.10;99.90;;;;;;4883675;29;20555;-70
2023/08/06 08:16:07;;;;;;;7.68;6.28;;;21.10;99.90;;;;;;4899798;29;20036;-70
2023/08/06 08:18:33;;;;;;;10.05;6.22;;;21.60;99.90;;;;;;4916657;29;20046;-70
2023/08/06 08:20:58;;;;;;;7.40;6.70;;;21.40;99.90;;;;;;4899747;29;20516;-71
2023/08/06 08:23:24;;;;;;;8.75;6.63;;;21.40;99.90;;;;;;4899264;29;20047;-69
2023/08/06 08:25:50;;;;;;;6.15;5.55;;;21.40;99.90;;;;;;4899684;29;20040;-70
2023/08/06 08:28:16;;;;;;;7.65;6.28;;;21.30;99.90;;;;;;4914860;29;20040;-71
2023/08/06 08:30:42;;;;;;;8.25;5.97;;;21.00;99.90;;;;;;4883658;29;20416;-70
2023/08/06 08:33:07;;;;;;;6.35;5.68;;;21.70;99.90;;;;;;4882761;29;20515;-71
2023/08/06 08:35:34;;;;;;;7.82;6.20;;;21.50;99.90;;;;;;4883361;29;20044;-70
2023/08/06 08:38:00;;;;;;;8.30;5.63;;;21.70;99.90;;;;;;4899410;29;20512;-70
2023/08/06 08:40:32;;;;;;;6.20;5.60;;;21.60;99.90;;;;;;4898634;29;20071;-70
2023/08/06 08:42:59;;;;;;;7.60;6.10;;;21.90;99.90;;;;;;4898329;29;20119;-70
2023/08/06 08:45:28;;;;;;;7.82;6.55;;;21.50;99.90;;;;;;4882321;29;20055;-70
2023/08/06 08:47:54;;;;;;;5.97;5.38;;;21.40;99.90;;;;;;4882867;29;20583;-71
2023/08/06 08:50:20;;;;;;;6.35;5.38;;;21.70;99.90;;;;;;4898898;29;20072;-70
2023/08/06 08:52:48;;;;;;;13.32;5.85;;;21.80;99.90;;;;;;4895859;29;20052;-71
2023/08/06 08:55:15;;;;;;;5.40;4.63;;;21.80;99.90;;;;;;4894958;29;20111;-71
2023/08/06 08:57:41;;;;;;;4.53;4.13;;;21.80;99.90;;;;;;4893753;29;20040;-71
2023/08/06 09:00:07;;;;;;;7.53;4.60;;;21.80;99.90;;;;;;4891071;29;20045;-72
2023/08/06 09:02:33;;;;;;;7.78;4.80;;;21.80;99.90;;;;;;4891985;29;20116;-72
2023/08/06 09:05:03;;;;;;;6.65;4.82;;;21.60;99.90;;;;;;4894500;29;20610;-72
2023/08/06 09:07:45;;;;;;;6.20;5.05;;;21.90;99.90;;;;;;4892226;29;20432;-70
2023/08/06 09:10:13;;;;;;;4.90;4.40;;;22.00;99.90;;;;;;4894354;29;20590;-72
2023/08/06 09:12:39;;;;;;;6.75;4.90;;;21.80;99.90;;;;;;4912170;29;20431;-71
2023/08/06 09:15:05;;;;;;;7.95;4.88;;;22.10;99.90;;;;;;4879192;29;20039;-70
2023/08/06 09:17:31;;;;;;;7.38;5.00;;;22.20;99.90;;;;;;4894117;29;20040;-70
2023/08/06 09:19:57;;;;;;;4.93;3.78;;;22.00;99.90;;;;;;4892564;29;20075;-70
2023/08/06 09:22:23;;;;;;;3.42;3.13;;;22.20;99.90;;;;;;4886970;29;20067;-71
2023/08/06 09:24:49;;;;;;;3.75;2.95;;;22.30;99.90;;;;;;4883272;29;20087;-71
2023/08/06 09:27:15;;;;;;;3.65;3.30;;;21.90;99.90;;;;;;4878064;29;20863;-70
2023/08/06 09:29:44;;;;;;;5.20;4.07;;;22.80;99.90;;;;;;4895148;29;20091;-70
2023/08/06 09:32:12;;;;;;;6.05;3.58;;;22.30;99.90;;;;;;4893041;29;20028;-70
2023/08/06 09:34:42;;;;;;;3.40;3.10;;;22.40;99.90;;;;;;4891538;29;20035;-69
2023/08/06 09:37:12;;;;;;;4.53;3.60;;;22.30;99.90;;;;;;4888482;29;20044;-71
2023/08/06 09:39:40;;;;;;;4.20;3.33;;;22.40;99.90;;;;;;4888030;29;20684;-70
2023/08/06 09:42:06;;;;;;;4.70;4.15;;;22.40;99.90;;;;;;4877443;29;20044;-71
2023/08/06 09:44:33;;;;;;;4.60;3.53;;;22.60;99.90;;;;;;4893994;29;20050;-71
2023/08/06 09:47:00;;;;;;;7.55;4.45;;;22.90;99.90;;;;;;4873435;29;20048;-71
2023/08/06 09:49:46;;;;;;;3.85;3.35;;;22.70;99.90;;;;;;4879646;29;20044;-71
2023/08/06 09:52:13;;;;;;;4.15;3.67;;;23.30;99.90;;;;;;4892418;29;20056;-71
2023/08/06 09:54:39;;;;;;;3.83;3.42;;;23.50;99.90;;;;;;4901439;29;20047;-70
2023/08/06 09:57:05;;;;;;;3.20;2.92;;;23.50;99.90;;;;;;4877937;29;20080;-71
2023/08/06 09:59:33;;;;;;;5.50;3.22;;;23.70;99.90;;;;;;4894187;29;20640;-71
2023/08/06 10:01:59;;;;;;;4.47;2.53;;;23.20;99.90;;;;;;4882995;29;20055;-70
2023/08/06 10:04:25;;;;;;;3.72;2.78;;;23.00;99.90;;;;;;4886627;29;20064;-71
2023/08/06 10:06:50;;;;;;;4.25;2.30;;;23.30;99.90;;;;;;4879338;29;20048;-70
2023/08/06 10:09:18;;;;;;;2.30;2.00;;;23.50;99.90;;;;;;4889815;29;20048;-71
2023/08/06 10:11:47;;;;;;;2.92;2.60;;;23.80;99.90;;;;;;4896455;29;20040;-70
2023/08/06 10:14:20;;;;;;;5.07;3.00;;;23.90;99.90;;;;;;4881710;29;20043;-70
2023/08/06 10:16:47;;;;;;;3.15;2.58;;;23.30;99.90;;;;;;4882412;29;20170;-71
2023/08/06 10:19:15;;;;;;;3.03;2.72;;;24.00;99.90;;;;;;4901592;29;20040;-71
2023/08/06 10:21:41;;;;;;;2.85;1.98;;;23.40;99.90;;;;;;4899706;29;20043;-72
2023/08/06 10:24:14;;;;;;;3.88;2.25;;;24.00;99.90;;;;;;4900676;29;20400;-70
2023/08/06 10:26:40;;;;;;;5.30;2.78;;;24.00;99.90;;;;;;4900482;29;20048;-71
2023/08/06 10:29:42;;;;;;;7.72;2.72;;;23.80;99.90;;;;;;4900902;29;20032;-71
2023/08/06 10:32:08;;;;;;;4.93;3.03;;;23.50;99.90;;;;;;4901080;29;20059;-71
2023/08/06 10:35:27;;;;;;;2.65;1.95;;;23.00;99.90;;;;;;4895490;29;20039;-71
2023/08/06 10:37:52;;;;;;;2.15;1.90;;;23.50;99.90;;;;;;4825981;29;20415;-70
2023/08/06 10:40:21;;;;;;;2.83;2.08;;;23.70;99.90;;;;;;4877538;29;20053;-70
2023/08/06 10:42:47;;;;;;;2.95;2.00;;;23.90;99.90;;;;;;4899197;29;20122;-71
2023/08/06 10:45:19;;;;;;;2.83;1.83;;;23.90;99.90;;;;;;4900816;29;20513;-71
2023/08/06 10:47:45;;;;;;;3.70;1.90;;;23.70;99.90;;;;;;4884516;29;20123;-71
2023/08/06 10:50:14;;;;;;;2.83;1.77;;;23.90;99.90;;;;;;4900773;29;20087;-71
2023/08/06 10:52:40;;;;;;;4.78;1.60;;;23.70;99.90;;;;;;4900383;29;20032;-71
2023/08/06 10:55:06;;;;;;;2.03;1.73;;;23.70;99.90;;;;;;4898030;29;20036;-71
2023/08/06 10:57:31;;;;;;;3.97;2.13;;;23.50;99.90;;;;;;4917498;29;20042;-70
2023/08/06 10:59:57;;;;;;;2.63;2.00;;;23.70;99.90;;;;;;4917400;29;20080;-71
2023/08/06 11:02:23;;;;;;;2.17;1.50;;;23.60;99.90;;;;;;4900309;29;20510;-71
2023/08/06 11:04:49;;;;;;;2.55;1.98;;;23.80;99.90;;;;;;4900672;29;20047;-71
2023/08/06 11:07:14;;;;;;;2.42;1.85;;;23.60;99.90;;;;;;4899665;29;20040;-70
2023/08/06 11:09:40;;;;;;;2.40;2.08;;;24.00;99.90;;;;;;4916784;29;20082;-71
2023/08/06 11:12:18;;;;;;;3.30;2.20;;;24.20;99.90;;;;;;4899681;29;20060;-71
2023/08/06 11:14:50;;;;;;;2.50;1.55;;;24.40;99.90;;;;;;4898972;29;20092;-70
2023/08/06 11:17:15;;;;;;;3.88;1.95;;;24.10;99.90;;;;;;4916943;29;20488;-71
2023/08/06 11:19:41;;;;;;;4.30;1.98;;;24.30;99.90;;;;;;4894476;29;20040;-71
2023/08/06 11:22:07;;;;;;;3.75;1.80;;;24.50;99.90;;;;;;4886356;29;20509;-70
2023/08/06 11:24:32;;;;;;;2.88;1.88;;;24.30;99.90;;;;;;4899080;29;20047;-70
2023/08/06 11:26:58;;;;;;;2.55;1.90;;;24.50;99.90;;;;;;4916655;29;20042;-70
2023/08/06 11:29:24;;;;;;;4.20;2.35;;;24.30;99.90;;;;;;4898031;29;20070;-70
2023/08/06 11:31:49;;;;;;;2.50;1.90;;;24.30;99.90;;;;;;4899684;29;20040;-71
2023/08/06 11:34:16;;;;;;;3.20;2.10;;;24.20;99.90;;;;;;4899576;29;20043;-71
2023/08/06 11:36:42;;;;;;;4.55;2.55;;;23.80;99.90;;;;;;4884222;29;20051;-70
2023/08/06 11:39:09;;;;;;;2.90;2.22;;;24.10;99.90;;;;;;4917056;29;20040;-70
2023/08/06 11:41:37;;;;;;;4.90;2.83;;;24.40;99.90;;;;;;4899849;29;20055;-71
2023/08/06 11:44:03;;;;;;;3.33;2.25;;;24.30;99.90;;;;;;4899885;29;20052;-70
2023/08/06 11:46:29;;;;;;;3.38;2.38;;;24.60;99.90;;;;;;4883732;29;20408;-71
2023/08/06 11:48:56;;;;;;;4.20;2.13;;;24.70;99.90;;;;;;4899240;29;20195;-70
2023/08/06 11:51:24;;;;;;;3.00;2.05;;;24.60;99.90;;;;;;4899645;29;20454;-71
2023/08/06 11:53:50;;;;;;;4.07;2.28;;;23.70;99.90;;;;;;4907173;29;20411;-71
2023/08/06 11:56:16;;;;;;;5.70;2.33;;;24.30;99.90;;;;;;4914102;29;20047;-71
2023/08/06 11:58:42;;;;;;;4.38;2.22;;;24.00;99.90;;;;;;4911398;29;20032;-71
2023/08/06 12:01:08;;;;;;;4.55;2.40;;;24.00;99.90;;;;;;4899221;29;20051;-70
2023/08/06 12:03:39;;;;;;;3.53;2.30;;;23.80;99.90;;;;;;4901040;29;20048;-71
2023/08/06 12:06:05;;;;;;;3.33;2.15;;;23.80;99.90;;;;;;4899635;29;20058;-70
2023/08/06 12:08:31;;;;;;;5.30;2.75;;;23.80;99.90;;;;;;4899513;29;20508;-71
2023/08/06 12:10:56;;;;;;;2.55;2.13;;;23.60;99.90;;;;;;4899984;29;20563;-71
2023/08/06 12:13:22;;;;;;;3.38;2.15;;;23.80;99.90;;;;;;4907806;29;20043;-71
2023/08/06 12:15:47;;;;;;;2.58;2.17;;;23.60;99.90;;;;;;4917400;29;20031;-71
2023/08/06 12:18:13;;;;;;;3.97;2.10;;;23.60;99.90;;;;;;4918474;29;20381;-71
2023/08/06 12:20:39;;;;;;;4.28;2.13;;;23.40;99.90;;;;;;4926019;29;20043;-71
2023/08/06 12:23:04;;;;;;;2.70;2.00;;;23.60;99.90;;;;;;4902060;29;20043;-72
2023/08/06 12:25:30;;;;;;;4.20;1.98;;;23.60;99.90;;;;;;4918191;29;20051;-71
2023/08/06 12:27:55;;;;;;;2.40;1.90;;;24.00;99.90;;;;;;4902695;29;20519;-71
2023/08/06 12:30:21;;;;;;;3.83;1.90;;;24.00;99.90;;;;;;4901555;29;20115;-71
2023/08/06 12:32:47;;;;;;;2.92;2.45;;;24.10;99.90;;;;;;4914247;29;20032;-72
2023/08/06 12:35:14;;;;;;;3.40;2.38;;;24.50;99.90;;;;;;4914707;29;20039;-71
2023/08/06 12:37:40;;;;;;;4.63;2.00;;;24.40;99.90;;;;;;4898983;29;20058;-72
2023/08/06 12:40:06;;;;;;;3.42;2.55;;;24.10;99.90;;;;;;4899388;29;20044;-72
2023/08/06 12:42:31;;;;;;;3.22;2.22;;;23.30;99.90;;;;;;4899040;29;20507;-71
2023/08/06 12:44:58;;;;;;;3.67;2.83;;;23.40;99.90;;;;;;4887082;29;20031;-72
2023/08/06 12:47:23;;;;;;;3.55;2.20;;;23.60;99.90;;;;;;4906462;29;20423;-72
2023/08/06 12:49:49;;;;;;;3.72;2.28;;;23.70;99.90;;;;;;4903909;29;20047;-71
2023/08/06 12:52:16;;;;;;;4.80;2.00;;;23.60;99.90;;;;;;4917188;29;20040;-71